Time;durP1;ratioP1;P1;durP2;ratioP2;P2;SDS_P1;SDS_P2;PMS_P1;PMS_P2;Temp;Humidity;BMP_temperature;BMP_pressure;BME280_temperature;BME280_humidity;BME280_pressure;Samples;Min_cycle;Max_cycle;Signal;HPM_P1;HPM_P2
2022/09/11 00:00:50;;;;;;;9.98;5.57;;;;;;;16.12;100.00;99725.00;12216663;19;20019;-84
2022/09/11 00:04:52;;;;;;;9.65;5.72;;;;;;;16.13;100.00;99732.22;12217770;19;20015;-85
2022/09/11 00:08:59;;;;;;;8.80;5.97;;;;;;;16.12;100.00;99725.84;12196769;19;20455;-85
2022/09/11 00:13:02;;;;;;;13.85;5.90;;;;;;;16.12;100.00;99728.63;12217513;19;20007;-85
2022/09/11 00:17:05;;;;;;;14.00;6.35;;;;;;;16.14;100.00;99733.88;12213448;19;20333;-85
2022/09/11 00:21:06;;;;;;;9.68;6.32;;;;;;;16.15;100.00;99728.03;12196468;19;20003;-84
2022/09/11 00:25:08;;;;;;;11.80;6.43;;;;;;;16.17;100.00;99741.63;12216289;19;20010;-85
2022/09/11 00:29:10;;;;;;;7.38;5.20;;;;;;;16.18;100.00;99744.16;12217764;19;20006;-85
2022/09/11 00:33:13;;;;;;;8.53;5.63;;;;;;;16.19;100.00;99739.41;12192751;19;20015;-84
2022/09/11 00:37:14;;;;;;;7.72;5.45;;;;;;;16.16;100.00;99743.59;12212260;19;20858;-84
2022/09/11 00:41:23;;;;;;;11.23;6.22;;;;;;;16.11;100.00;99740.00;12205579;19;20014;-85
2022/09/11 00:45:26;;;;;;;11.27;6.22;;;;;;;16.05;100.00;99746.72;12190387;19;20006;-84
2022/09/11 00:49:53;;;;;;;10.48;6.47;;;;;;;16.01;100.00;99746.47;12209641;19;20011;-85
2022/09/11 00:53:57;;;;;;;12.50;6.75;;;;;;;15.98;100.00;99749.84;12188621;19;20022;-84
2022/09/11 00:58:03;;;;;;;10.23;6.75;;;;;;;15.97;100.00;99752.88;12209067;19;20042;-83
2022/09/11 01:02:08;;;;;;;11.32;6.85;;;;;;;15.98;100.00;99760.13;12209280;19;20017;-85
2022/09/11 01:06:11;;;;;;;11.90;7.30;;;;;;;15.99;100.00;99756.22;12180877;19;20378;-84
2022/09/11 01:10:12;;;;;;;12.40;7.93;;;;;;;15.98;100.00;99763.72;12210515;19;20009;-84
2022/09/11 01:14:28;;;;;;;14.25;6.90;;;;;;;15.99;100.00;99764.56;12210496;19;20014;-85
2022/09/11 01:18:40;;;;;;;12.85;7.82;;;;;;;16.00;100.00;99771.75;12187076;19;20480;-83
2022/09/11 01:23:19;;;;;;;9.85;7.07;;;;;;;16.01;100.00;99767.88;12207346;19;20022;-84
2022/09/11 01:27:42;;;;;;;13.40;7.85;;;;;;;15.99;100.00;99770.94;12181079;19;20529;-83
2022/09/11 01:31:55;;;;;;;14.23;7.93;;;;;;;15.95;100.00;99776.25;12211186;19;20014;-84
2022/09/11 01:36:08;;;;;;;14.38;8.27;;;;;;;15.93;100.00;99777.66;12183275;19;21481;-84
2022/09/11 01:40:23;;;;;;;14.13;8.88;;;;;;;15.95;100.00;99783.75;12208602;19;20003;-84
2022/09/11 01:44:30;;;;;;;12.90;8.63;;;;;;;15.95;100.00;99784.59;12211944;19;20018;-84
2022/09/11 01:48:39;;;;;;;16.00;9.80;;;;;;;15.97;100.00;99777.91;12200131;19;20014;-84
2022/09/11 01:52:55;;;;;;;15.90;9.73;;;;;;;15.97;100.00;99775.13;12221736;19;20051;-84
2022/09/11 01:57:10;;;;;;;17.88;9.40;;;;;;;15.95;100.00;99781.81;12200315;19;20464;-84
2022/09/11 02:01:23;;;;;;;15.25;9.73;;;;;;;15.94;100.00;99780.16;12222200;19;20006;-83
2022/09/11 02:05:36;;;;;;;19.35;10.63;;;;;;;15.87;100.00;99785.19;12228391;19;20015;-83
2022/09/11 02:09:45;;;;;;;21.33;10.95;;;;;;;15.81;100.00;99779.94;12201440;19;20006;-84
2022/09/11 02:14:11;;;;;;;17.63;10.95;;;;;;;15.73;100.00;99770.22;12241751;19;20060;-84
2022/09/11 02:18:23;;;;;;;20.35;11.20;;;;;;;15.63;100.00;99781.38;12259844;19;20003;-84
2022/09/11 02:22:27;;;;;;;17.83;11.00;;;;;;;15.56;100.00;99789.19;12256056;19;20021;-83
2022/09/11 02:26:32;;;;;;;20.30;11.60;;;;;;;15.50;100.00;99788.38;12222512;19;20026;-83
2022/09/11 02:30:37;;;;;;;24.30;12.70;;;;;;;15.48;100.00;99785.88;12200175;19;20027;-83
2022/09/11 02:34:41;;;;;;;29.20;13.45;;;;;;;15.43;100.00;99796.97;12223622;19;20018;-83
2022/09/11 02:39:07;;;;;;;25.63;12.23;;;;;;;15.46;100.00;99801.97;12224258;19;20014;-83
2022/09/11 02:43:45;;;;;;;27.92;12.70;;;;;;;15.47;100.00;99805.59;12201311;19;20035;-82
2022/09/11 02:48:04;;;;;;;22.90;12.40;;;;;;;15.48;100.00;99805.31;12223595;19;20038;-83
2022/09/11 02:52:19;;;;;;;27.35;13.68;;;;;;;15.45;100.00;99819.75;12205318;19;20022;-83
2022/09/11 02:56:31;;;;;;;28.23;13.02;;;;;;;15.47;100.00;99830.59;12218874;19;20035;-82
2022/09/11 03:00:34;;;;;;;29.48;13.73;;;;;;;15.48;100.00;99837.78;12198747;19;20021;-82
2022/09/11 03:04:36;;;;;;;;;;;;;;;15.48;100.00;99837.78;12220695;19;20011;-82
2022/09/11 03:08:37;;;;;;;24.10;12.70;;;;;;;15.48;100.00;99835.03;12222809;19;20252;-82
2022/09/11 03:12:40;;;;;;;30.77;15.38;;;;;;;15.50;100.00;99833.63;12195996;19;20011;-82
2022/09/11 03:16:44;;;;;;;28.88;15.38;;;;;;;15.50;100.00;99838.34;12214134;19;20030;-82
2022/09/11 03:20:46;;;;;;;25.98;14.32;;;;;;;15.50;100.00;99844.75;12215101;19;20065;-82
2022/09/11 03:24:48;;;;;;;31.85;14.75;;;;;;;15.50;100.00;99844.75;12196924;19;20083;-83
2022/09/11 03:28:51;;;;;;;25.92;15.05;;;;;;;15.49;100.00;99850.56;12218667;19;20011;-82
2022/09/11 03:32:53;;;;;;;28.17;14.50;;;;;;;15.54;100.00;99852.50;12194751;19;20074;-85
2022/09/11 03:36:54;;;;;;;33.53;16.55;;;;;;;15.58;100.00;99856.38;12211707;19;20011;-84
2022/09/11 03:40:57;;;;;;;31.85;16.45;;;;;;;15.59;100.00;99858.88;12211587;19;20034;-84
2022/09/11 03:44:58;;;;;;;34.88;17.45;;;;;;;15.62;100.00;99860.28;12191044;19;20007;-84
2022/09/11 03:49:01;;;;;;;33.72;16.80;;;;;;;15.62;100.00;99863.88;12215052;19;20018;-84
2022/09/11 03:53:03;;;;;;;29.73;16.20;;;;;;;15.64;100.00;99860.78;12214835;19;20010;-83
2022/09/11 03:57:06;;;;;;;34.03;18.08;;;;;;;15.60;100.00;99876.38;12192873;19;20463;-84
2022/09/11 04:01:12;;;;;;;35.35;17.88;;;;;;;15.56;100.00;99872.50;12213139;19;20015;-84
2022/09/11 04:05:16;;;;;;;37.47;18.48;;;;;;;15.54;100.00;99872.78;12212636;19;20352;-84
2022/09/11 04:09:18;;;;;;;38.20;18.92;;;;;;;15.55;100.00;99879.97;12189498;19;20010;-84
2022/09/11 04:13:30;;;;;;;42.80;20.02;;;;;;;15.54;100.00;99885.84;12211475;19;20015;-84
2022/09/11 04:17:35;;;;;;;48.33;20.23;;;;;;;15.53;100.00;99879.44;12210884;19;20357;-84
2022/09/11 04:21:38;;;;;;;44.43;20.20;;;;;;;15.53;100.00;99885.00;12189171;19;20006;-84
2022/09/11 04:25:40;;;;;;;44.15;20.75;;;;;;;15.55;100.00;99888.31;12210266;19;20062;-84
2022/09/11 04:29:41;;;;;;;51.90;22.10;;;;;;;15.55;100.00;99893.03;12209314;19;20018;-84
2022/09/11 04:33:44;;;;;;;47.55;21.77;;;;;;;15.53;100.00;99887.78;12188957;19;20011;-84
2022/09/11 04:37:48;;;;;;;46.53;21.40;;;;;;;15.53;100.00;99890.56;12210676;19;20010;-84
2022/09/11 04:41:49;;;;;;;50.65;22.92;;;;;;;15.53;100.00;99892.47;12216722;19;20347;-84
2022/09/11 04:45:51;;;;;;;52.63;22.75;;;;;;;15.52;100.00;99893.59;12195032;19;20122;-84
2022/09/11 04:49:53;;;;;;;56.42;24.45;;;;;;;15.49;100.00;99895.81;12215602;19;20018;-82
2022/09/11 04:53:56;;;;;;;58.77;23.07;;;;;;;15.48;100.00;99901.66;12192875;19;20125;-82
2022/09/11 04:58:04;;;;;;;53.72;22.85;;;;;;;15.49;100.00;99906.94;12217360;19;20010;-82
2022/09/11 05:02:06;;;;;;;53.20;22.77;;;;;;;15.47;100.00;99916.69;12222299;19;20007;-83
2022/09/11 05:06:15;;;;;;;49.83;22.30;;;;;;;15.43;100.00;99924.72;12189528;19;20025;-82
2022/09/11 05:10:20;;;;;;;51.97;21.67;;;;;;;15.42;100.00;99927.78;12213226;19;20097;-82
2022/09/11 05:14:21;;;;;;;54.83;22.90;;;;;;;15.41;100.00;99932.50;12214425;19;20006;-83
2022/09/11 05:18:25;;;;;;;48.83;21.88;;;;;;;15.38;100.00;99932.25;12192878;19;20112;-83
2022/09/11 05:22:27;;;;;;;53.42;22.08;;;;;;;15.38;100.00;99935.84;12238989;19;20002;-82
2022/09/11 05:26:34;;;;;;;53.22;23.45;;;;;;;15.40;100.00;99941.94;12226142;19;20022;-81
2022/09/11 05:30:37;;;;;;;48.85;21.38;;;;;;;15.42;100.00;99936.94;12208418;19;20047;-82
2022/09/11 05:34:39;;;;;;;47.58;22.30;;;;;;;15.43;100.00;99948.88;12227257;19;20071;-82
2022/09/11 05:38:44;;;;;;;49.95;23.58;;;;;;;15.44;100.00;99959.72;12229158;19;20403;-82
2022/09/11 05:42:45;;;;;;;61.17;23.87;;;;;;;15.52;100.00;99955.53;12208384;19;20551;-82
2022/09/11 05:46:47;;;;;;;54.92;23.75;;;;;;;15.60;100.00;99960.53;12229560;19;20015;-82
2022/09/11 05:51:18;;;;;;;63.65;24.60;;;;;;;15.67;100.00;99968.56;12218948;19;20026;-82
2022/09/11 05:55:26;;;;;;;53.28;24.17;;;;;;;15.70;100.00;99970.81;12118538;19;2004649;-82
2022/09/11 05:59:33;;;;;;;57.08;24.30;;;;;;;15.76;100.00;99982.75;12216537;19;20002;-82
2022/09/11 06:03:38;;;;;;;62.22;25.20;;;;;;;15.82;100.00;99965.78;12193504;19;20020;-82
2022/09/11 06:07:45;;;;;;;59.20;24.80;;;;;;;15.85;100.00;99968.00;12214803;19;20042;-82
2022/09/11 06:11:51;;;;;;;51.85;23.15;;;;;;;15.80;100.00;99967.22;12217813;19;20014;-82
2022/09/11 06:15:55;;;;;;;54.95;24.75;;;;;;;15.71;100.00;99976.09;12195952;19;20065;-83
2022/09/11 06:20:03;;;;;;;49.60;22.42;;;;;;;15.66;100.00;99994.69;12215182;19;20010;-83
2022/09/11 06:24:18;;;;;;;52.65;23.40;;;;;;;15.60;100.00;99993.84;12195380;19;20010;-82
2022/09/11 06:28:27;;;;;;;47.95;22.92;;;;;;;15.57;100.00;100004.69;12214610;19;20030;-83
2022/09/11 06:32:41;;;;;;;55.67;24.17;;;;;;;15.55;100.00;99998.59;12217537;19;20011;-82
2022/09/11 06:36:47;;;;;;;59.85;25.55;;;;;;;15.55;100.00;100004.13;12195049;19;20014;-82
2022/09/11 06:41:04;;;;;;;56.73;25.97;;;;;;;15.55;100.00;100004.13;12210911;19;20006;-82
2022/09/11 06:45:12;;;;;;;53.83;25.10;;;;;;;15.55;100.00;100015.25;12192088;19;20713;-83
2022/09/11 06:49:15;;;;;;;64.57;26.98;;;;;;;15.53;100.00;100017.47;12219013;19;20006;-83
2022/09/11 06:53:36;;;;;;;59.30;26.05;;;;;;;15.56;100.00;100011.38;12217681;19;20045;-83
2022/09/11 06:57:46;;;;;;;63.25;27.10;;;;;;;15.62;100.00;100015.81;12195020;19;20464;-83
2022/09/11 07:01:54;;;;;;;60.28;25.40;;;;;;;15.66;100.00;100011.34;12206014;19;20014;-80
2022/09/11 07:06:02;;;;;;;54.05;24.02;;;;;;;15.77;100.00;100012.22;12180149;19;20017;-81
2022/09/11 07:10:14;;;;;;;56.42;26.13;;;;;;;15.96;100.00;100013.28;12200090;19;20089;-81
2022/09/11 07:14:20;;;;;;;50.85;23.77;;;;;;;16.29;100.00;100020.16;12210908;19;20376;-81
2022/09/11 07:18:35;;;;;;;47.63;23.88;;;;;;;16.67;100.00;100020.59;12186890;19;20054;-81
2022/09/11 07:22:44;;;;;;;47.45;24.20;;;;;;;16.93;100.00;100018.53;12202058;19;20010;-82
2022/09/11 07:26:49;;;;;;;31.60;19.75;;;;;;;17.08;100.00;100017.63;12197534;19;20003;-81
2022/09/11 07:31:14;;;;;;;32.65;20.10;;;;;;;17.36;100.00;100038.31;12192141;19;20070;-80
2022/09/11 07:35:27;;;;;;;31.00;18.45;;;;;;;17.75;100.00;100034.66;12248048;19;20346;-79
2022/09/11 07:39:32;;;;;;;29.98;18.83;;;;;;;18.11;100.00;100029.59;12246857;19;20017;-79
2022/09/11 07:43:45;;;;;;;25.23;16.27;;;;;;;18.28;100.00;100039.47;12263916;19;20016;-79
2022/09/11 07:47:48;;;;;;;27.58;18.25;;;;;;;18.15;100.00;100044.63;12232533;19;20052;-80
2022/09/11 07:51:58;;;;;;;28.15;18.75;;;;;;;18.05;100.00;100053.06;12191595;19;20018;-81
2022/09/11 07:56:19;;;;;;;31.13;18.00;;;;;;;18.13;100.00;100054.41;12225390;19;20025;-81
2022/09/11 08:00:27;;;;;;;32.63;20.55;;;;;;;18.63;100.00;100055.81;12187416;19;20010;-82
2022/09/11 08:04:39;;;;;;;27.55;18.08;;;;;;;19.18;100.00;100054.56;12209352;19;20007;-81
2022/09/11 08:08:46;;;;;;;28.90;17.45;;;;;;;19.65;100.00;100059.19;12212471;19;20007;-80
2022/09/11 08:12:52;;;;;;;24.67;17.00;;;;;;;19.75;100.00;100047.84;12211780;19;20010;-80
2022/09/11 08:17:01;;;;;;;27.50;17.02;;;;;;;19.88;100.00;100051.00;12254958;19;20002;-82
2022/09/11 08:21:07;;;;;;;26.05;16.50;;;;;;;20.10;100.00;100058.69;12215799;19;20011;-82
2022/09/11 08:25:15;;;;;;;29.20;19.13;;;;;;;20.10;100.00;100058.69;12217626;19;20010;-81
2022/09/11 08:29:18;;;;;;;26.77;18.33;;;;;;;19.82;100.00;100067.03;12216037;19;20029;-82
2022/09/11 08:33:35;;;;;;;27.30;17.48;;;;;;;19.62;100.00;100067.31;12188191;19;20007;-82
2022/09/11 08:37:39;;;;;;;25.05;16.83;;;;;;;19.49;100.00;100074.50;12221511;19;20079;-82
2022/09/11 08:41:55;;;;;;;;;;;;;;;19.43;100.00;100073.75;12223711;19;20014;-82
2022/09/11 08:46:08;;;;;;;27.23;17.25;;;;;;;19.57;100.00;100063.47;12198760;19;19906;-82
2022/09/11 08:50:24;;;;;;;23.20;16.33;;;;;;;19.71;100.00;100080.31;12216539;19;20014;-83
2022/09/11 08:54:44;;;;;;;19.92;15.23;;;;;;;19.79;100.00;100081.63;12215339;19;20018;-81
2022/09/11 08:59:34;;;;;;;23.55;15.23;;;;;;;19.97;100.00;100079.91;12226803;19;20022;-81
2022/09/11 09:04:20;;;;;;;25.75;16.15;;;;;;;20.38;100.00;100070.78;12201496;19;20014;-81
2022/09/11 09:08:34;;;;;;;22.58;16.30;;;;;;;20.79;100.00;100068.03;12230772;19;20050;-80
2022/09/11 09:12:55;;;;;;;24.88;16.80;;;;;;;21.21;100.00;100076.38;12204315;19;20126;-80
2022/09/11 09:17:26;;;;;;;110.15;19.50;;;;;;;21.76;94.03;100068.66;12228152;19;20046;-82
2022/09/11 09:22:18;;;;;;;23.20;15.60;;;;;;;22.60;90.80;100075.44;12205337;19;20024;-82
2022/09/11 09:26:33;;;;;;;24.27;14.88;;;;;;;22.58;89.71;100080.56;12225173;19;20539;-84
2022/09/11 09:30:57;;;;;;;22.73;15.70;;;;;;;22.16;88.82;100091.22;12218399;19;20011;-82
2022/09/11 09:35:23;;;;;;;23.83;16.25;;;;;;;21.32;93.75;100089.00;12222880;19;20010;-82
2022/09/11 09:39:37;;;;;;;26.85;17.05;;;;;;;20.69;94.99;100093.44;12207109;19;20011;-82
2022/09/11 09:43:50;;;;;;;25.23;16.55;;;;;;;20.26;100.00;100088.06;12228291;19;20451;-81
2022/09/11 09:47:53;;;;;;;27.52;17.30;;;;;;;19.85;100.00;100091.56;12222533;19;20033;-83
2022/09/11 09:52:04;;;;;;;25.67;16.63;;;;;;;19.79;100.00;100090.81;12228346;19;20544;-81
2022/09/11 09:56:22;;;;;;;30.77;18.42;;;;;;;20.71;98.04;100085.56;12226460;19;20003;-81
2022/09/11 10:00:31;;;;;;;28.92;17.80;;;;;;;21.71;93.29;100082.78;12220132;19;20395;-80
2022/09/11 10:04:36;;;;;;;27.45;17.05;;;;;;;22.45;82.33;100087.94;12230646;19;20373;-82
2022/09/11 10:08:43;;;;;;;24.20;17.00;;;;;;;22.98;79.05;100089.00;12233085;19;20457;-81
2022/09/11 10:12:54;;;;;;;23.83;17.45;;;;;;;22.74;80.35;100084.59;12204169;19;20069;-83
2022/09/11 10:17:39;;;;;;;27.48;16.50;;;;;;;21.99;84.48;100085.50;12222882;19;20101;-83
2022/09/11 10:21:44;;;;;;;27.95;15.77;;;;;;;21.38;87.71;100090.59;12201964;19;20010;-82
2022/09/11 10:25:50;;;;;;;25.25;16.70;;;;;;;20.77;88.96;100091.91;12220322;19;20010;-81
2022/09/11 10:29:57;;;;;;;27.52;17.23;;;;;;;20.32;89.86;100094.41;12202668;19;20015;-80
2022/09/11 10:34:03;;;;;;;29.58;17.75;;;;;;;20.13;91.91;100091.66;12216206;19;20078;-80
2022/09/11 10:38:45;;;;;;;21.67;15.07;;;;;;;20.10;93.70;100081.09;12219506;19;20009;-82
2022/09/11 10:42:51;;;;;;;20.00;13.15;;;;;;;21.07;91.36;100079.22;12197484;19;20010;-81
2022/09/11 10:47:31;;;;;;;15.80;10.80;;;;;;;22.11;86.53;100076.50;12215471;19;20629;-80
2022/09/11 10:51:37;;;;;;;15.13;10.73;;;;;;;22.57;81.24;100075.28;12193670;19;20570;-82
2022/09/11 10:55:57;;;;;;;17.02;11.00;;;;;;;22.22;79.77;100081.56;12214850;19;20642;-81
2022/09/11 11:00:19;;;;;;;16.55;10.90;;;;;;;21.90;80.10;100084.59;12194854;19;20025;-82
2022/09/11 11:04:27;;;;;;;17.38;11.05;;;;;;;21.72;82.90;100092.06;12212453;19;20018;-83
2022/09/11 11:08:58;;;;;;;14.88;10.68;;;;;;;21.64;85.26;100084.41;12218238;19;20015;-79
2022/09/11 11:13:28;;;;;;;18.30;10.95;;;;;;;21.62;85.64;100079.09;12193186;19;20014;-79
2022/09/11 11:17:58;;;;;;;17.03;10.50;;;;;;;21.76;84.86;100079.88;12205799;19;20372;-80
2022/09/11 11:22:20;;;;;;;13.82;10.25;;;;;;;21.91;81.92;100081.47;12186237;19;20123;-80
2022/09/11 11:26:35;;;;;;;17.98;10.35;;;;;;;22.01;81.91;100083.19;12205963;19;20010;-80
2022/09/11 11:31:09;;;;;;;17.45;11.20;;;;;;;22.42;79.95;100082.13;12197586;19;20051;-80
2022/09/11 11:35:22;;;;;;;13.87;10.00;;;;;;;22.90;77.75;100085.00;12202152;19;20018;-81
2022/09/11 11:39:34;;;;;;;13.63;9.95;;;;;;;22.81;78.38;100084.13;12191733;19;20031;-81
2022/09/11 11:43:42;;;;;;;16.90;11.70;;;;;;;22.53;76.03;100086.31;12212256;19;20030;-81
2022/09/11 11:47:56;;;;;;;13.77;10.95;;;;;;;22.30;75.21;100083.56;12206786;19;20451;-81
2022/09/11 11:52:07;;;;;;;14.40;10.13;;;;;;;22.13;76.13;100083.44;12188595;19;20701;-81
2022/09/11 11:56:29;;;;;;;16.02;10.02;;;;;;;22.07;76.09;100084.69;12210472;19;20003;-81
2022/09/11 12:00:40;;;;;;;15.35;9.77;;;;;;;21.97;77.10;100087.78;12193038;19;20015;-81
2022/09/11 12:05:01;;;;;;;12.93;9.65;;;;;;;21.97;75.96;100087.78;12203915;19;20018;-81
2022/09/11 12:09:07;;;;;;;13.90;9.18;;;;;;;22.04;77.45;100088.16;12191684;19;20014;-81
2022/09/11 12:13:19;;;;;;;12.70;9.15;;;;;;;22.17;76.11;100092.09;12213907;19;20011;-81
2022/09/11 12:17:27;;;;;;;14.40;9.18;;;;;;;22.48;75.37;100092.91;12210949;19;20010;-82
2022/09/11 12:21:30;;;;;;;14.95;9.68;;;;;;;22.67;75.61;100089.88;12189361;19;20041;-82
2022/09/11 12:25:36;;;;;;;11.27;8.73;;;;;;;22.66;75.70;100096.63;12202789;19;20418;-81
2022/09/11 12:29:39;;;;;;;15.60;9.15;;;;;;;22.69;74.18;100087.53;12216306;19;20341;-81
2022/09/11 12:33:53;;;;;;;13.52;9.13;;;;;;;22.79;72.43;100089.25;12192245;19;20018;-82
2022/09/11 12:38:12;;;;;;;12.15;8.25;;;;;;;22.97;72.28;100087.34;12205623;19;20011;-82
2022/09/11 12:42:22;;;;;;;12.82;9.35;;;;;;;23.22;70.18;100084.94;12191571;19;20036;-82
2022/09/11 12:46:25;;;;;;;12.38;8.48;;;;;;;23.43;70.62;100081.13;12210168;19;20030;-80
2022/09/11 12:50:28;;;;;;;11.35;7.25;;;;;;;23.72;70.21;100078.88;12205908;19;19998;-80
2022/09/11 12:54:43;;;;;;;12.43;8.43;;;;;;;24.03;67.77;100076.69;12178572;19;20070;-81
2022/09/11 12:58:55;;;;;;;11.48;7.88;;;;;;;24.31;66.44;100079.13;12205011;19;20023;-82
2022/09/11 13:03:00;;;;;;;10.98;7.53;;;;;;;24.37;64.81;100071.31;12182311;19;20014;-82
2022/09/11 13:07:07;;;;;;;9.75;7.03;;;;;;;25.81;62.43;100061.84;12209790;19;20082;-79
2022/09/11 13:11:43;;;;;;;7.70;6.07;;;;;;;27.40;56.43;100059.28;12212644;19;20046;-80
2022/09/11 13:15:51;;;;;;;8.50;6.28;;;;;;;26.88;56.55;100054.38;12181401;19;20003;-80
2022/09/11 13:20:22;;;;;;;9.40;6.20;;;;;;;26.41;53.23;100045.47;12203434;19;20006;-79
2022/09/11 13:24:33;;;;;;;8.77;4.88;;;;;;;26.25;55.26;100036.84;12185680;19;20138;-80
2022/09/11 13:28:48;;;;;;;8.25;5.68;;;;;;;26.26;53.53;100044.16;12209607;19;20010;-81
2022/09/11 13:33:26;;;;;;;8.65;5.43;;;;;;;26.28;53.83;100048.28;12207403;19;20038;-81
2022/09/11 13:37:44;;;;;;;8.10;5.32;;;;;;;26.67;51.03;100036.69;12098336;19;2004380;-81
2022/09/11 13:42:01;;;;;;;8.07;5.05;;;;;;;26.97;50.60;100034.44;12219509;19;20010;-80
2022/09/11 13:46:27;;;;;;;7.22;4.80;;;;;;;26.95;48.23;100031.16;12199286;19;20355;-80
2022/09/11 13:50:30;;;;;;;6.80;4.85;;;;;;;26.80;49.32;100030.69;12224779;19;20006;-82
2022/09/11 13:54:37;;;;;;;7.68;5.10;;;;;;;27.91;47.43;100030.47;12197741;19;20014;-80
2022/09/11 13:58:43;;;;;;;7.20;5.57;;;;;;;28.98;44.81;100012.59;12223171;19;20006;-80
2022/09/11 14:02:51;;;;;;;6.93;5.32;;;;;;;29.80;42.81;100008.75;12219912;19;20026;-81
2022/09/11 14:06:55;;;;;;;8.80;5.82;;;;;;;28.84;42.63;100010.25;12190220;19;20017;-81
2022/09/11 14:11:04;;;;;;;8.20;5.47;;;;;;;27.73;44.49;100005.28;12215841;19;20016;-81
2022/09/11 14:15:23;;;;;;;6.38;4.80;;;;;;;26.99;45.66;100003.81;12232603;19;20022;-79
2022/09/11 14:19:31;;;;;;;6.40;4.60;;;;;;;26.66;45.93;99993.47;12265263;19;20024;-79
2022/09/11 14:23:47;;;;;;;7.45;4.88;;;;;;;26.31;46.74;99996.72;12218131;19;20031;-80
2022/09/11 14:27:57;;;;;;;5.70;4.35;;;;;;;25.84;47.34;99982.97;12191346;19;20003;-81
2022/09/11 14:32:28;;;;;;;7.63;4.95;;;;;;;25.84;48.15;99993.44;12212230;19;20010;-81
2022/09/11 14:36:31;;;;;;;8.75;4.80;;;;;;;25.65;48.20;99979.84;12196275;19;20078;-81
2022/09/11 14:40:42;;;;;;;7.18;5.13;;;;;;;25.28;48.90;99979.66;12212594;19;20090;-81
2022/09/11 14:44:52;;;;;;;6.85;4.82;;;;;;;25.18;48.61;99980.09;12215841;19;20002;-81
2022/09/11 14:48:59;;;;;;;8.48;4.72;;;;;;;25.70;47.71;99976.81;12197919;19;20033;-80
2022/09/11 14:53:19;;;;;;;6.85;4.97;;;;;;;25.62;47.92;99980.53;12216169;19;20022;-80
2022/09/11 14:57:31;;;;;;;7.13;4.50;;;;;;;25.41;48.22;99972.91;12191361;19;20010;-80
2022/09/11 15:01:36;;;;;;;8.05;5.43;;;;;;;25.71;48.18;99971.97;12219333;19;20015;-81
2022/09/11 15:05:53;;;;;;;9.57;5.18;;;;;;;27.00;45.08;99965.88;12211456;19;20011;-81
2022/09/11 15:10:06;;;;;;;7.25;5.38;;;;;;;27.21;44.36;99960.88;12192910;19;20086;-80
2022/09/11 15:14:10;;;;;;;10.82;6.00;;;;;;;26.48;45.37;99955.31;12213763;19;20029;-80
2022/09/11 15:18:33;;;;;;;6.90;5.68;;;;;;;25.68;47.13;99950.91;12192877;19;20007;-80
2022/09/11 15:22:42;;;;;;;11.90;5.75;;;;;;;25.42;47.33;99948.34;12214492;19;20070;-80
2022/09/11 15:26:47;;;;;;;9.80;5.80;;;;;;;25.07;48.34;99950.63;12210540;19;20045;-80
2022/09/11 15:31:03;;;;;;;7.30;5.32;;;;;;;24.85;48.44;99940.50;12193250;19;20007;-79
2022/09/11 15:35:11;;;;;;;10.55;5.68;;;;;;;24.83;48.99;99937.19;12213569;19;20010;-80
2022/09/11 15:39:18;;;;;;;7.30;4.97;;;;;;;24.86;49.02;99934.50;12186380;19;20088;-80
2022/09/11 15:43:35;;;;;;;6.20;4.68;;;;;;;24.47;49.80;99932.94;12211626;19;20384;-80
2022/09/11 15:47:43;;;;;;;8.50;5.15;;;;;;;24.21;50.80;99935.88;12206800;19;20463;-79
2022/09/11 15:51:56;;;;;;;7.15;4.78;;;;;;;23.91;51.37;99932.19;12193290;19;20038;-80
2022/09/11 15:56:03;;;;;;;8.93;5.40;;;;;;;23.57;51.66;99931.91;12212916;19;20013;-80
2022/09/11 16:00:13;;;;;;;6.72;4.95;;;;;;;23.37;52.41;99933.44;12189788;19;20122;-80
2022/09/11 16:04:33;;;;;;;5.90;4.63;;;;;;;23.40;52.71;99929.13;12212240;19;20015;-79
2022/09/11 16:08:40;;;;;;;6.50;4.88;;;;;;;23.50;52.81;99920.38;12215737;19;20054;-79
2022/09/11 16:12:45;;;;;;;7.18;4.10;;;;;;;23.39;53.17;99927.50;12192972;19;20111;-79
2022/09/11 16:16:54;;;;;;;8.05;4.78;;;;;;;23.15;53.18;99931.63;12210457;19;20364;-79
2022/09/11 16:21:00;;;;;;;6.43;4.97;;;;;;;22.98;52.88;99931.63;12194628;19;20539;-79
2022/09/11 16:25:06;;;;;;;6.43;5.00;;;;;;;22.85;53.85;99932.59;12213195;19;20070;-78
2022/09/11 16:29:19;;;;;;;7.22;5.03;;;;;;;22.75;54.67;99936.53;12215596;19;20021;-79
2022/09/11 16:33:30;;;;;;;6.18;4.93;;;;;;;22.65;54.34;99934.06;12193761;19;20021;-78
2022/09/11 16:37:34;;;;;;;8.75;5.75;;;;;;;22.56;54.55;99925.59;12211109;19;20054;-77
2022/09/11 16:41:40;;;;;;;10.02;4.78;;;;;;;22.46;55.33;99929.56;12209523;19;20038;-79
2022/09/11 16:45:53;;;;;;;7.68;5.10;;;;;;;22.40;55.49;99927.19;12189635;19;20093;-78
2022/09/11 16:50:01;;;;;;;6.93;5.17;;;;;;;22.30;56.30;99926.34;12214191;19;20138;-80
2022/09/11 16:54:14;;;;;;;6.90;4.97;;;;;;;22.17;57.45;99930.13;12188920;19;20472;-78
2022/09/11 16:58:21;;;;;;;6.35;4.90;;;;;;;22.05;58.41;99927.06;12209124;19;20527;-78
2022/09/11 17:02:29;;;;;;;9.63;4.55;;;;;;;21.95;59.42;99928.19;12217126;19;20007;-79
2022/09/11 17:06:37;;;;;;;9.20;5.53;;;;;;;21.81;58.48;99928.28;12190018;19;20011;-78
2022/09/11 17:10:47;;;;;;;7.40;4.40;;;;;;;21.70;58.97;99920.47;12261683;19;20011;-78
2022/09/11 17:14:50;;;;;;;12.93;5.47;;;;;;;21.54;61.25;99929.28;12261232;19;20011;-78
2022/09/11 17:19:01;;;;;;;7.35;4.90;;;;;;;21.35;63.10;99926.63;12250320;19;20003;-79
2022/09/11 17:23:19;;;;;;;11.02;4.97;;;;;;;21.13;64.83;99929.44;12233553;19;20409;-80
2022/09/11 17:27:26;;;;;;;6.10;4.53;;;;;;;20.89;66.37;99926.94;12203301;19;20021;-81
2022/09/11 17:31:29;;;;;;;10.57;5.57;;;;;;;20.64;67.22;99917.13;12224895;19;20010;-79
2022/09/11 17:35:32;;;;;;;8.57;5.40;;;;;;;20.40;68.89;99928.56;12222818;19;20483;-80
2022/09/11 17:39:37;;;;;;;9.38;5.43;;;;;;;20.16;70.53;99923.19;12201987;19;20333;-80
2022/09/11 17:43:45;;;;;;;9.07;5.70;;;;;;;19.93;72.01;99927.81;12216589;19;20014;-79
2022/09/11 17:47:51;;;;;;;8.32;5.95;;;;;;;19.72;73.95;99924.59;12222432;19;20113;-81
2022/09/11 17:51:59;;;;;;;8.77;5.70;;;;;;;19.47;75.94;99921.09;12199710;19;20007;-80
2022/09/11 17:56:09;;;;;;;10.45;5.70;;;;;;;19.26;77.02;99936.56;12219711;19;20113;-80
2022/09/11 18:00:12;;;;;;;8.95;5.82;;;;;;;19.05;78.76;99936.88;12203661;19;20033;-79
2022/09/11 18:04:25;;;;;;;8.38;5.93;;;;;;;18.88;80.01;99936.59;12221598;19;20023;-80
2022/09/11 18:08:32;;;;;;;11.02;6.07;;;;;;;18.71;81.65;99939.03;12232832;19;20602;-80
2022/09/11 18:12:39;;;;;;;11.18;6.20;;;;;;;18.58;82.92;99941.44;12208001;19;20007;-80
2022/09/11 18:16:49;;;;;;;12.23;6.97;;;;;;;18.45;83.78;99945.81;12222055;19;20072;-80
2022/09/11 18:21:02;;;;;;;10.82;6.03;;;;;;;18.33;84.10;99941.78;12222621;19;20728;-80
2022/09/11 18:25:16;;;;;;;11.52;6.18;;;;;;;18.22;84.52;99949.44;12196383;19;20027;-79
2022/09/11 18:29:21;;;;;;;12.23;6.20;;;;;;;18.12;86.05;99950.41;12234482;19;20549;-79
2022/09/11 18:33:33;;;;;;;9.27;6.38;;;;;;;18.03;87.20;99945.78;12203332;19;20011;-80
2022/09/11 18:37:38;;;;;;;11.30;6.50;;;;;;;17.92;87.27;99956.19;12223926;19;20762;-80
2022/09/11 18:41:47;;;;;;;9.30;6.33;;;;;;;17.83;88.83;99950.44;12219450;19;20588;-79
2022/09/11 18:45:51;;;;;;;10.13;7.22;;;;;;;17.74;89.28;99953.00;12193559;19;20700;-82
2022/09/11 18:49:59;;;;;;;14.85;7.00;;;;;;;17.67;90.07;99955.31;12219393;19;20062;-80
2022/09/11 18:54:02;;;;;;;10.00;6.60;;;;;;;17.59;90.94;99958.72;12204330;19;20042;-80
2022/09/11 18:58:05;;;;;;;10.80;6.55;;;;;;;17.54;91.54;99951.22;12221034;19;20037;-81